Time;durP1;ratioP1;P1;durP2;ratioP2;P2;SDS_P1;SDS_P2;PMS_P1;PMS_P2;Temp;Humidity;BMP_temperature;BMP_pressure;BME280_temperature;BME280_humidity;BME280_pressure;Samples;Min_cycle;Max_cycle;Signal;HPM_P1;HPM_P2
2023/03/23 00:00:05;;;;;;;;;;;;;;;10.54;69.61;97789.56;5085875;28;19962;-79
2023/03/23 00:02:35;;;;;;;;;;;;;;;10.49;70.32;97781.56;5060198;28;19920;-78
2023/03/23 00:05:04;;;;;;;;;;;;;;;10.57;69.85;97789.00;5083374;28;19956;-78
2023/03/23 00:07:30;;;;;;;;;;;;;;;10.53;70.07;97786.06;5077871;28;19924;-78
2023/03/23 00:09:55;;;;;;;;;;;;;;;10.53;69.77;97788.75;5084795;28;19924;-78
2023/03/23 00:12:33;;;;;;;;;;;;;;;10.54;70.08;97779.69;5078021;28;19961;-78
2023/03/23 00:15:03;;;;;;;;;;;;;;;10.48;70.19;97772.75;5088646;28;20004;-79
2023/03/23 00:17:29;;;;;;;;;;;;;;;10.51;69.81;97774.88;5068204;28;19995;-78
2023/03/23 00:19:55;;;;;;;;;;;;;;;10.55;69.96;97775.94;5067859;28;20012;-78
2023/03/23 00:22:21;;;;;;;;;;;;;;;10.57;69.97;97770.34;5079994;28;19920;-78
2023/03/23 00:24:47;;;;;;;;;;;;;;;10.57;69.91;97766.88;5082530;28;19920;-79
2023/03/23 00:27:14;;;;;;;;;;;;;;;10.57;70.23;97780.22;5083402;28;20372;-78
2023/03/23 00:29:40;;;;;;;;;;;;;;;10.51;70.98;97784.75;5053851;28;19924;-78
2023/03/23 00:32:06;;;;;;;;;;;;;;;10.44;71.50;97774.38;5080719;28;19999;-78
2023/03/23 00:34:32;;;;;;;;;;;;;;;10.32;72.20;97781.91;5082218;28;19963;-78
2023/03/23 00:36:59;;;;;;;;;;;;;;;10.36;72.20;97795.47;5068410;28;20340;-78
2023/03/23 00:39:26;;;;;;;;;;;;;;;10.34;72.57;97781.63;5088827;28;19927;-78
2023/03/23 00:41:52;;;;;;;;;;;;;;;10.31;72.65;97787.53;5088076;28;19920;-78
2023/03/23 00:44:18;;;;;;;;;;;;;;;10.33;72.72;97791.50;5064953;28;20268;-78
2023/03/23 00:46:45;;;;;;;;;;;;;;;10.25;73.04;97781.38;5084022;28;19913;-78
2023/03/23 00:49:12;;;;;;;;;;;;;;;10.14;73.70;97797.69;5084001;28;20003;-78
2023/03/23 00:51:37;;;;;;;;;;;;;;;10.05;74.38;97792.06;5067601;28;20320;-78
2023/03/23 00:54:02;;;;;;;;;;;;;;;9.99;75.26;97784.38;5048228;28;20081;-80
2023/03/23 00:56:28;;;;;;;;;;;;;;;9.96;75.32;97783.03;5064214;28;19959;-79
2023/03/23 00:58:53;;;;;;;;;;;;;;;9.93;75.85;97791.59;5071892;28;20517;-80
2023/03/23 01:01:18;;;;;;;;;;;;;;;9.98;75.63;97788.13;5076913;28;19920;-77
2023/03/23 01:03:44;;;;;;;;;;;;;;;10.01;75.69;97788.34;5082857;28;20062;-78
2023/03/23 01:06:12;;;;;;;;;;;;;;;9.95;75.85;97781.44;5084169;28;20391;-78
2023/03/23 01:08:39;;;;;;;;;;;;;;;9.90;75.94;97777.97;5077870;28;20051;-78
2023/03/23 01:11:05;;;;;;;;;;;;;;;9.93;76.47;97772.94;5079800;28;21364;-77
2023/03/23 01:13:30;;;;;;;;;;;;;;;9.93;76.36;97782.78;5082677;28;19916;-78
2023/03/23 01:15:56;;;;;;;;;;;;;;;9.86;76.79;97771.59;5063753;28;19924;-77
2023/03/23 01:18:21;;;;;;;;;;;;;;;9.78;77.36;97764.97;5066093;28;19920;-77
2023/03/23 01:20:46;;;;;;;;;;;;;;;9.79;77.76;97769.22;5085525;28;20012;-78
2023/03/23 01:23:11;;;;;;;;;;;;;;;9.85;77.32;97762.03;5066227;28;19920;-78
2023/03/23 01:25:37;;;;;;;;;;;;;;;9.74;77.87;97758.59;5069572;28;19920;-78
2023/03/23 01:28:03;;;;;;;;;;;;;;;9.79;77.40;97750.56;5083296;28;19920;-78
2023/03/23 01:30:28;;;;;;;;;;;;;;;9.80;77.80;97744.97;5081565;28;19923;-78
2023/03/23 01:32:54;;;;;;;;;;;;;;;9.74;77.62;97742.59;5063455;28;19977;-78
2023/03/23 01:35:19;;;;;;;;;;;;;;;9.75;77.76;97736.19;5086394;28;20395;-78
2023/03/23 01:37:44;;;;;;;;;;;;;;;9.64;78.14;97727.41;5052828;28;19920;-78
2023/03/23 01:40:10;;;;;;;;;;;;;;;9.70;78.21;97725.53;5083400;28;20015;-78
2023/03/23 01:42:37;;;;;;;;;;;;;;;9.74;78.40;97743.38;5086112;28;19955;-78
2023/03/23 01:45:21;;;;;;;;;;;;;;;9.85;77.80;97738.81;5068836;28;19939;-78
2023/03/23 01:47:49;;;;;;;;;;;;;;;9.85;77.92;97741.47;5077217;28;20364;-77
2023/03/23 01:50:15;;;;;;;;;;;;;;;9.79;77.66;97735.38;5085791;28;19924;-78
2023/03/23 01:52:40;;;;;;;;;;;;;;;9.72;77.79;97742.03;5080939;28;20011;-78
2023/03/23 01:55:06;;;;;;;;;;;;;;;9.76;77.36;97724.47;5088108;28;19924;-78
2023/03/23 01:57:31;;;;;;;;;;;;;;;9.74;77.65;97729.28;5082574;28;19969;-78
2023/03/23 01:59:59;;;;;;;;;;;;;;;9.69;77.95;97715.94;5068586;28;19935;-78
2023/03/23 02:02:25;;;;;;;;;;;;;;;9.75;77.81;97712.19;5083220;28;19935;-78
2023/03/23 02:04:51;;;;;;;;;;;;;;;9.69;77.32;97711.44;5067868;28;20308;-78
2023/03/23 02:07:18;;;;;;;;;;;;;;;9.72;77.20;97734.84;5084948;28;19920;-81
2023/03/23 02:09:43;;;;;;;;;;;;;;;9.72;77.02;97728.72;5082024;28;20352;-78
2023/03/23 02:12:09;;;;;;;;;;;;;;;9.77;77.05;97726.06;5081645;28;19955;-78
2023/03/23 02:14:34;;;;;;;;;;;;;;;9.75;77.04;97722.84;5082830;28;19920;-78
2023/03/23 02:17:17;;;;;;;;;;;;;;;9.85;76.28;97722.06;5076064;28;20022;-78
2023/03/23 02:20:05;;;;;;;;;;;;;;;9.82;76.46;97726.06;5078982;28;20055;-78
2023/03/23 02:22:44;;;;;;;;;;;;;;;9.78;76.14;97717.00;5083106;28;20707;-78
2023/03/23 02:25:27;;;;;;;;;;;;;;;9.79;76.27;97707.94;5079189;28;19962;-80
2023/03/23 02:27:58;;;;;;;;;;;;;;;9.81;75.85;97709.25;5084326;28;20358;-80
2023/03/23 02:30:30;;;;;;;;;;;;;;;9.80;76.63;97691.69;5069961;28;19916;-78
2023/03/23 02:33:22;;;;;;;;;;;;;;;9.85;76.22;97712.16;5067130;28;19916;-80
2023/03/23 02:35:52;;;;;;;;;;;;;;;9.78;76.19;97704.44;5083123;28;20368;-77
2023/03/23 02:38:20;;;;;;;;;;;;;;;9.90;75.80;97709.50;5082636;28;19916;-78
2023/03/23 02:40:47;;;;;;;;;;;;;;;9.82;75.76;97704.72;5080862;28;19931;-78
2023/03/23 02:43:15;;;;;;;;;;;;;;;9.82;76.31;97700.19;5066951;28;19995;-78
2023/03/23 02:45:41;;;;;;;;;;;;;;;9.83;76.50;97704.44;5080502;28;19924;-78
2023/03/23 02:48:07;;;;;;;;;;;;;;;9.82;76.37;97715.38;5081802;28;19920;-78
2023/03/23 02:50:34;;;;;;;;;;;;;;;9.86;76.25;97731.63;5075628;28;20014;-78
2023/03/23 02:53:01;;;;;;;;;;;;;;;9.83;76.28;97716.97;5079176;28;19927;-79
2023/03/23 02:55:28;;;;;;;;;;;;;;;9.77;77.36;97721.53;5065511;28;20336;-79
2023/03/23 02:57:54;;;;;;;;;;;;;;;9.73;78.27;97709.81;5059470;28;20269;-78
2023/03/23 03:00:20;;;;;;;;;;;;;;;9.66;79.24;97725.28;5065574;28;19920;-78
2023/03/23 03:02:52;;;;;;;;;;;;;;;9.61;79.27;97714.63;5086056;28;19932;-79
2023/03/23 03:05:30;;;;;;;;;;;;;;;9.56;80.18;97716.50;5063640;28;20268;-79
2023/03/23 03:08:06;;;;;;;;;;;;;;;9.59;80.18;97715.97;5086874;28;20326;-79
2023/03/23 03:10:37;;;;;;;;;;;;;;;9.55;81.14;97710.38;5087647;28;20371;-79
2023/03/23 03:13:08;;;;;;;;;;;;;;;9.53;80.96;97701.88;5080792;28;20015;-79
2023/03/23 03:15:36;;;;;;;;;;;;;;;9.49;81.73;97716.00;5082517;28;20011;-79
2023/03/23 03:18:04;;;;;;;;;;;;;;;9.51;82.57;97712.00;5067196;28;19916;-78
2023/03/23 03:20:31;;;;;;;;;;;;;;;9.51;82.38;97717.31;5086280;28;19955;-78
2023/03/23 03:22:57;;;;;;;;;;;;;;;9.48;82.61;97711.75;5066334;28;19928;-78
2023/03/23 03:25:23;;;;;;;;;;;;;;;9.50;83.33;97705.06;5084076;28;19920;-78
2023/03/23 03:27:52;;;;;;;;;;;;;;;9.50;83.85;97705.06;5068671;28;19974;-78
2023/03/23 03:30:21;;;;;;;;;;;;;;;9.50;83.26;97714.94;5054312;28;20315;-78
2023/03/23 03:32:50;;;;;;;;;;;;;;;9.56;83.11;97724.50;5083694;28;19924;-78
2023/03/23 03:35:16;;;;;;;;;;;;;;;9.55;83.38;97720.22;5061407;28;20299;-78
2023/03/23 03:37:42;;;;;;;;;;;;;;;9.48;83.56;97736.50;5085335;28;19921;-78
2023/03/23 03:40:11;;;;;;;;;;;;;;;9.49;84.08;97740.75;5094461;28;19931;-79
2023/03/23 03:42:37;;;;;;;;;;;;;;;9.57;83.86;97728.75;5073097;28;19947;-80
2023/03/23 03:45:03;;;;;;;;;;;;;;;9.51;84.46;97733.31;5071378;28;19922;-78
2023/03/23 03:47:28;;;;;;;;;;;;;;;9.54;84.25;97739.97;5089302;28;19991;-78
2023/03/23 03:49:53;;;;;;;;;;;;;;;9.51;84.34;97737.81;5084802;28;20368;-78
2023/03/23 03:52:18;;;;;;;;;;;;;;;9.42;84.61;97731.44;5082691;28;21493;-78
2023/03/23 03:54:44;;;;;;;;;;;;;;;9.53;84.40;97741.81;5080557;28;19924;-79
2023/03/23 03:57:09;;;;;;;;;;;;;;;9.35;85.15;97733.59;5082485;28;20003;-78
2023/03/23 03:59:35;;;;;;;;;;;;;;;9.35;85.17;97733.59;5059589;28;20184;-79
2023/03/23 04:02:00;;;;;;;;;;;;;;;9.51;85.08;97729.84;5090356;28;19916;-79
2023/03/23 04:04:25;;;;;;;;;;;;;;;9.48;84.83;97741.03;5089678;28;19978;-79
2023/03/23 04:06:50;;;;;;;;;;;;;;;9.45;85.32;97734.38;5088800;28;19923;-78
2023/03/23 04:09:16;;;;;;;;;;;;;;;9.56;84.41;97735.16;5082585;28;19924;-78
2023/03/23 04:11:41;;;;;;;;;;;;;;;9.49;85.30;97743.44;5058479;28;20353;-78
2023/03/23 04:14:06;;;;;;;;;;;;;;;9.44;84.87;97747.94;5084209;28;19962;-77
2023/03/23 04:16:34;;;;;;;;;;;;;;;9.49;84.69;97751.41;5079886;28;19924;-79
2023/03/23 04:19:00;;;;;;;;;;;;;;;9.41;85.60;97749.31;5081705;28;19970;-79
2023/03/23 04:21:28;;;;;;;;;;;;;;;9.36;85.82;97745.81;5085105;28;20376;-78
2023/03/23 04:23:54;;;;;;;;;;;;;;;9.39;85.72;97761.28;5074087;28;19923;-78
2023/03/23 04:26:19;;;;;;;;;;;;;;;9.33;86.46;97759.66;5065021;28;19916;-79
2023/03/23 04:28:44;;;;;;;;;;;;;;;9.38;86.18;97760.47;5058898;28;19920;-79
2023/03/23 04:31:12;;;;;;;;;;;;;;;9.40;86.16;97770.84;5055122;28;20031;-79
2023/03/23 04:33:40;;;;;;;;;;;;;;;9.40;85.71;97766.34;5084884;28;20486;-79
2023/03/23 04:36:06;;;;;;;;;;;;;;;9.40;85.81;97778.84;5088717;28;19920;-79
2023/03/23 04:38:32;;;;;;;;;;;;;;;9.50;85.58;97770.88;5069006;28;19916;-79
2023/03/23 04:41:00;;;;;;;;;;;;;;;9.36;86.52;97775.94;5080763;28;20292;-79
2023/03/23 04:43:26;;;;;;;;;;;;;;;9.43;85.59;97773.00;5072566;28;19924;-79
2023/03/23 04:45:55;;;;;;;;;;;;;;;9.37;86.05;97758.88;5092058;28;19921;-79
2023/03/23 04:48:22;;;;;;;;;;;;;;;9.34;86.67;97747.97;5055529;28;19947;-78
2023/03/23 04:50:48;;;;;;;;;;;;;;;9.24;87.02;97753.31;5065432;28;20375;-79
2023/03/23 04:53:14;;;;;;;;;;;;;;;9.42;86.34;97764.19;5085915;28;19933;-79
2023/03/23 04:55:40;;;;;;;;;;;;;;;9.29;87.47;97759.41;5082994;28;19958;-79
2023/03/23 04:58:07;;;;;;;;;;;;;;;9.20;87.74;97760.19;5089071;28;19924;-79
2023/03/23 05:00:33;;;;;;;;;;;;;;;9.22;88.41;97734.91;5089952;28;19927;-78
2023/03/23 05:02:58;;;;;;;;;;;;;;;9.23;87.59;97731.19;5050061;28;20411;-79
2023/03/23 05:05:24;;;;;;;;;;;;;;;9.28;87.42;97733.88;5089575;28;19958;-79
2023/03/23 05:07:50;;;;;;;;;;;;;;;9.17;88.59;97729.59;5080827;28;19916;-78
2023/03/23 05:10:16;;;;;;;;;;;;;;;9.23;87.91;97728.53;5049220;28;19932;-79
2023/03/23 05:12:41;;;;;;;;;;;;;;;9.06;88.80;97730.66;5087565;28;19920;-78
2023/03/23 05:15:07;;;;;;;;;;;;;;;9.12;89.07;97723.47;5070923;28;20105;-78
2023/03/23 05:17:33;;;;;;;;;;;;;;;9.14;88.50;97716.81;5050001;28;19936;-79
2023/03/23 05:19:59;;;;;;;;;;;;;;;9.26;88.17;97701.34;5065572;28;19920;-79
2023/03/23 05:22:26;;;;;;;;;;;;;;;9.03;89.53;97693.94;5070384;28;20017;-79
2023/03/23 05:24:51;;;;;;;;;;;;;;;9.13;88.74;97685.16;5082432;28;19923;-79
2023/03/23 05:27:18;;;;;;;;;;;;;;;9.16;88.56;97695.25;5086770;28;19916;-79
2023/03/23 05:29:45;;;;;;;;;;;;;;;9.11;88.51;97705.91;5083807;28;19962;-79
2023/03/23 05:32:11;;;;;;;;;;;;;;;9.10;88.70;97701.66;5079768;28;19923;-78
2023/03/23 05:34:36;;;;;;;;;;;;;;;9.05;89.06;97692.59;5067898;28;19920;-77
2023/03/23 05:37:04;;;;;;;;;;;;;;;8.96;89.53;97686.22;5078740;28;21290;-78
2023/03/23 05:39:30;;;;;;;;;;;;;;;8.89;89.90;97684.88;5085522;28;19920;-78
2023/03/23 05:41:56;;;;;;;;;;;;;;;9.05;89.47;97697.13;5083833;28;19931;-79
2023/03/23 05:44:21;;;;;;;;;;;;;;;9.07;89.35;97703.78;5041384;28;19925;-79
2023/03/23 05:46:47;;;;;;;;;;;;;;;9.02;89.43;97729.59;5078696;28;20716;-78
2023/03/23 05:49:15;;;;;;;;;;;;;;;9.09;89.03;97734.66;5082473;28;19927;-79
2023/03/23 05:51:41;;;;;;;;;;;;;;;9.09;88.83;97738.09;5081414;28;20282;-78
2023/03/23 05:54:06;;;;;;;;;;;;;;;9.13;88.65;97725.84;5085812;28;20014;-79
2023/03/23 05:56:31;;;;;;;;;;;;;;;9.10;88.97;97729.06;5086104;28;19927;-79
2023/03/23 05:58:57;;;;;;;;;;;;;;;9.13;88.32;97736.50;5045720;28;20003;-79
2023/03/23 06:01:23;;;;;;;;;;;;;;;9.13;88.64;97739.16;5062433;28;20003;-79
2023/03/23 06:03:51;;;;;;;;;;;;;;;9.01;89.14;97739.44;5081002;28;19921;-78
2023/03/23 06:06:16;;;;;;;;;;;;;;;8.92;89.48;97732.25;5084460;28;19932;-78
2023/03/23 06:08:42;;;;;;;;;;;;;;;9.01;88.71;97731.47;5086367;28;20384;-79
2023/03/23 06:11:08;;;;;;;;;;;;;;;9.01;89.19;97725.34;5084232;28;19940;-79
2023/03/23 06:13:33;;;;;;;;;;;;;;;9.03;88.98;97728.53;5060310;28;19924;-80
2023/03/23 06:15:58;;;;;;;;;;;;;;;9.05;88.96;97732.53;5080328;28;19932;-80
2023/03/23 06:18:24;;;;;;;;;;;;;;;8.97;89.34;97727.75;5079368;28;19921;-79
2023/03/23 06:20:50;;;;;;;;;;;;;;;9.00;89.42;97724.53;5071767;28;19924;-80
2023/03/23 06:23:15;;;;;;;;;;;;;;;8.97;89.29;97700.31;5063193;28;19923;-79
2023/03/23 06:25:41;;;;;;;;;;;;;;;9.00;89.02;97703.22;5076852;28;20296;-79
2023/03/23 06:28:06;;;;;;;;;;;;;;;9.03;88.76;97699.25;5074661;28;19927;-78
2023/03/23 06:30:31;;;;;;;;;;;;;;;9.00;89.09;97705.09;5068952;28;20333;-79
2023/03/23 06:32:57;;;;;;;;;;;;;;;9.09;89.05;97716.03;5044066;28;19928;-80
2023/03/23 06:35:23;;;;;;;;;;;;;;;9.03;88.25;97726.66;5053992;28;19928;-80
2023/03/23 06:37:48;;;;;;;;;;;;;;;9.03;88.71;97716.03;5085394;28;20018;-81
2023/03/23 06:40:13;;;;;;;;;;;;;;;9.04;89.04;97728.25;5067047;28;19927;-80
2023/03/23 06:42:39;;;;;;;;;;;;;;;9.11;89.06;97729.88;5065987;28;19956;-81
2023/03/23 06:45:07;;;;;;;;;;;;;;;9.11;88.38;97722.66;5076512;28;20427;-80
2023/03/23 06:47:33;;;;;;;;;;;;;;;9.12;88.53;97726.13;5087615;28;19931;-81
2023/03/23 06:49:58;;;;;;;;;;;;;;;9.18;88.59;97741.03;5086995;28;19919;-80
2023/03/23 06:52:25;;;;;;;;;;;;;;;9.05;88.86;97743.16;5084401;28;20430;-80
2023/03/23 06:54:50;;;;;;;;;;;;;;;9.11;88.24;97748.50;5087057;28;19920;-80
2023/03/23 06:57:16;;;;;;;;;;;;;;;9.05;89.61;97739.69;5090452;28;19924;-80
2023/03/23 06:59:42;;;;;;;;;;;;;;;9.12;89.38;97744.75;5075105;28;19929;-80
2023/03/23 07:02:09;;;;;;;;;;;;;;;9.15;88.94;97731.75;5069763;28;19919;-81
2023/03/23 07:04:35;;;;;;;;;;;;;;;9.30;88.73;97746.91;5070517;28;19924;-81
2023/03/23 07:07:01;;;;;;;;;;;;;;;9.30;88.51;97749.56;5083993;28;20382;-80
2023/03/23 07:09:26;;;;;;;;;;;;;;;9.40;87.79;97753.03;5087350;28;20359;-80
2023/03/23 07:11:52;;;;;;;;;;;;;;;9.38;88.54;97754.34;5074976;28;20015;-80
2023/03/23 07:14:17;;;;;;;;;;;;;;;9.38;89.18;97746.34;5068397;28;19959;-79
2023/03/23 07:16:42;;;;;;;;;;;;;;;9.40;88.49;97742.38;5065987;28;19935;-80
2023/03/23 07:19:08;;;;;;;;;;;;;;;9.46;88.48;97751.94;5065063;28;19935;-81
2023/03/23 07:21:33;;;;;;;;;;;;;;;9.47;88.46;97739.44;5053562;28;19920;-80
2023/03/23 07:23:58;;;;;;;;;;;;;;;9.48;88.22;97749.03;5074638;28;19926;-80
2023/03/23 07:26:23;;;;;;;;;;;;;;;9.45;88.42;97737.03;5052413;28;20415;-80
2023/03/23 07:28:49;;;;;;;;;;;;;;;9.47;88.04;97756.22;5065938;28;19920;-79
2023/03/23 07:31:14;;;;;;;;;;;;;;;9.40;88.14;97747.69;5083929;28;20002;-80
2023/03/23 07:33:39;;;;;;;;;;;;;;;9.43;88.04;97741.84;5055432;28;20284;-81
2023/03/23 07:36:06;;;;;;;;;;;;;;;9.48;88.06;97754.34;5091584;28;19928;-81
2023/03/23 07:38:31;;;;;;;;;;;;;;;9.44;88.63;97762.06;5067601;28;19920;-80
2023/03/23 07:40:57;;;;;;;;;;;;;;;9.48;88.19;97760.47;5081050;28;19943;-81
2023/03/23 07:43:23;;;;;;;;;;;;;;;9.47;88.50;97758.06;5074390;28;19961;-81
2023/03/23 07:45:48;;;;;;;;;;;;;;;9.50;88.30;97768.97;5086037;28;19921;-81
2023/03/23 07:48:14;;;;;;;;;;;;;;;9.53;87.87;97771.13;5085927;28;19922;-80
2023/03/23 07:50:40;;;;;;;;;;;;;;;9.52;88.14;97761.50;5084150;28;19920;-80
2023/03/23 07:53:07;;;;;;;;;;;;;;;9.55;88.01;97766.31;5063456;28;19943;-80
2023/03/23 07:55:33;;;;;;;;;;;;;;;9.59;88.17;97761.25;5087416;28;19921;-80
2023/03/23 07:57:58;;;;;;;;;;;;;;;9.61;88.22;97757.25;5094426;28;20334;-81
2023/03/23 08:00:24;;;;;;;;;;;;;;;9.63;88.68;97757.78;5081022;28;20373;-81
2023/03/23 08:02:55;;;;;;;;;;;;;;;9.74;87.78;97769.25;5072474;28;19920;-81
2023/03/23 08:05:20;;;;;;;;;;;;;;;9.77;87.65;97766.81;5088157;28;19923;-81
2023/03/23 08:07:47;;;;;;;;;;;;;;;9.84;88.01;97763.88;5088018;28;19916;-81
2023/03/23 08:10:13;;;;;;;;;;;;;;;9.95;87.89;97762.78;5086083;28;19913;-81
2023/03/23 08:12:39;;;;;;;;;;;;;;;10.09;86.58;97760.38;5086337;28;20309;-81
2023/03/23 08:15:06;;;;;;;;;;;;;;;10.10;87.37;97762.75;5091466;28;19919;-81
2023/03/23 08:17:31;;;;;;;;;;;;;;;10.12;87.21;97773.16;5056428;28;20008;-81
2023/03/23 08:19:57;;;;;;;;;;;;;;;10.17;87.51;97771.28;5086417;28;19960;-80
2023/03/23 08:22:23;;;;;;;;;;;;;;;10.19;86.77;97782.47;5084446;28;19956;-82
2023/03/23 08:24:48;;;;;;;;;;;;;;;10.23;86.35;97785.41;5087419;28;19925;-81
2023/03/23 08:27:13;;;;;;;;;;;;;;;10.19;86.79;97795.00;5071865;28;20061;-81
2023/03/23 08:29:38;;;;;;;;;;;;;;;10.22;86.25;97805.16;5082739;28;20398;-80
2023/03/23 08:32:04;;;;;;;;;;;;;;;10.18;86.55;97785.41;5072936;28;20380;-81
2023/03/23 08:34:30;;;;;;;;;;;;;;;10.18;86.80;97810.22;5087049;28;19920;-81
2023/03/23 08:36:56;;;;;;;;;;;;;;;10.20;86.04;97794.72;5088574;28;19955;-81
2023/03/23 08:39:23;;;;;;;;;;;;;;;10.23;86.53;97799.53;5084133;28;19928;-80
2023/03/23 08:41:48;;;;;;;;;;;;;;;10.21;86.08;97800.88;5082360;28;19991;-81
2023/03/23 08:44:14;;;;;;;;;;;;;;;10.19;86.86;97795.81;5083721;28;19971;-80
2023/03/23 08:46:39;;;;;;;;;;;;;;;10.28;85.98;97785.38;5060102;28;19920;-81
2023/03/23 08:49:05;;;;;;;;;;;;;;;10.32;85.81;97794.44;5074167;28;19941;-80
2023/03/23 08:51:31;;;;;;;;;;;;;;;10.36;86.06;97784.81;5087470;28;20015;-81
2023/03/23 08:53:56;;;;;;;;;;;;;;;10.39;85.54;97786.94;5062830;28;20014;-81
2023/03/23 08:56:22;;;;;;;;;;;;;;;10.41;85.45;97785.59;5070687;28;20391;-80
2023/03/23 08:58:48;;;;;;;;;;;;;;;10.46;85.22;97784.78;5082751;28;19916;-81
2023/03/23 09:01:14;;;;;;;;;;;;;;;10.55;84.74;97791.94;5093789;28;19920;-80
2023/03/23 09:03:40;;;;;;;;;;;;;;;10.57;84.31;97792.47;5073202;28;20402;-80
2023/03/23 09:06:06;;;;;;;;;;;;;;;10.60;84.91;97788.44;5070853;28;19922;-81
2023/03/23 09:08:32;;;;;;;;;;;;;;;10.57;84.80;97789.78;5067807;28;19920;-81
2023/03/23 09:11:01;;;;;;;;;;;;;;;10.62;84.42;97786.31;5087801;28;19916;-81
2023/03/23 09:13:26;;;;;;;;;;;;;;;10.60;84.49;97793.78;5066480;28;20136;-80
2023/03/23 09:15:51;;;;;;;;;;;;;;;10.59;84.21;97788.72;5087079;28;19921;-81
2023/03/23 09:18:18;;;;;;;;;;;;;;;10.63;83.89;97792.44;5081630;28;19923;-80
2023/03/23 09:20:43;;;;;;;;;;;;;;;10.63;84.04;97787.91;5064611;28;19920;-80
2023/03/23 09:23:09;;;;;;;;;;;;;;;10.67;83.38;97788.97;5083383;28;19924;-80
2023/03/23 09:25:34;;;;;;;;;;;;;;;10.67;83.66;97788.16;5086603;28;20030;-80
2023/03/23 09:28:00;;;;;;;;;;;;;;;10.74;83.24;97794.78;5070991;28;19924;-79
2023/03/23 09:30:26;;;;;;;;;;;;;;;10.81;83.05;97781.16;5072705;28;19916;-81
2023/03/23 09:32:53;;;;;;;;;;;;;;;10.85;82.92;97782.19;5089019;28;19943;-82
2023/03/23 09:35:21;;;;;;;;;;;;;;;10.87;82.96;97793.38;5080162;28;19920;-80
2023/03/23 09:37:47;;;;;;;;;;;;;;;10.93;82.56;97792.28;5075258;28;19952;-79
2023/03/23 09:40:20;;;;;;;;;;;;;;;10.93;82.63;97786.94;5077760;28;19916;-80
2023/03/23 09:42:58;;;;;;;;;;;;;;;10.96;81.96;97799.75;5081989;28;19965;-80
2023/03/23 09:45:44;;;;;;;;;;;;;;;11.06;81.87;97805.00;5087791;28;20355;-80
2023/03/23 09:48:26;;;;;;;;;;;;;;;11.04;81.83;97799.16;5033352;28;19920;-80
2023/03/23 09:50:56;;;;;;;;;;;;;;;11.03;82.51;97797.56;5093903;28;19924;-79
2023/03/23 09:53:24;;;;;;;;;;;;;;;11.03;82.17;97798.34;5093204;28;19917;-80
2023/03/23 09:55:50;;;;;;;;;;;;;;;11.13;82.03;97803.66;5089875;28;19928;-81
2023/03/23 09:58:25;;;;;;;;;;;;;;;11.14;81.79;97801.75;5088017;28;19920;-81
2023/03/23 10:01:06;;;;;;;;;;;;;;;11.06;81.91;97787.13;5089136;28;19947;-79
2023/03/23 10:03:37;;;;;;;;;;;;;;;11.07;81.90;97787.94;5085451;28;19927;-80
2023/03/23 10:06:02;;;;;;;;;;;;;;;11.19;81.41;97794.50;5088610;28;19926;-81
2023/03/23 10:08:31;;;;;;;;;;;;;;;11.25;81.55;97787.25;5072732;28;19916;-81
2023/03/23 10:11:12;;;;;;;;;;;;;;;11.24;80.81;97799.03;5079270;28;19942;-80
2023/03/23 10:13:37;;;;;;;;;;;;;;;11.24;80.71;97796.34;5062131;28;19966;-80
2023/03/23 10:16:05;;;;;;;;;;;;;;;11.26;80.76;97818.25;5062413;28;20388;-81
2023/03/23 10:18:38;;;;;;;;;;;;;;;11.28;80.15;97808.06;5082108;28;19966;-80
2023/03/23 10:21:03;;;;;;;;;;;;;;;11.38;80.11;97802.66;5089642;28;19916;-81
2023/03/23 10:23:42;;;;;;;;;;;;;;;11.38;80.34;97820.56;5083553;28;20214;-80
2023/03/23 10:26:26;;;;;;;;;;;;;;;11.31;80.22;97821.66;5095656;28;19959;-80
2023/03/23 10:28:54;;;;;;;;;;;;;;;11.34;79.68;97814.97;5080499;28;20288;-81
2023/03/23 10:31:23;;;;;;;;;;;;;;;11.28;79.97;97832.13;5072703;28;19954;-80
2023/03/23 10:33:50;;;;;;;;;;;;;;;11.29;79.83;97817.69;5081967;28;19916;-80
2023/03/23 10:36:19;;;;;;;;;;;;;;;11.31;79.11;97805.63;5080178;28;19924;-81
2023/03/23 10:39:23;;;;;;;;;;;;;;;11.43;78.94;97820.50;5081514;28;19940;-81
2023/03/23 10:41:49;;;;;;;;;;;;;;;11.55;79.07;97820.97;5037603;28;19952;-81
2023/03/23 10:44:18;;;;;;;;;;;;;;;11.51;78.61;97820.72;5022009;28;19917;-80
2023/03/23 10:47:00;;;;;;;;;;;;;;;11.54;78.42;97824.72;5067988;28;19920;-81
2023/03/23 10:49:28;;;;;;;;;;;;;;;11.60;77.92;97815.59;5099938;28;20402;-80
2023/03/23 10:51:59;;;;;;;;;;;;;;;11.57;78.31;97832.19;5090277;28;20371;-81
2023/03/23 10:54:26;;;;;;;;;;;;;;;11.63;77.66;97829.19;5091000;28;19924;-81
2023/03/23 10:56:52;;;;;;;;;;;;;;;11.69;77.97;97827.28;5094598;28;19920;-81
2023/03/23 10:59:26;;;;;;;;;;;;;;;11.80;77.60;97815.44;5074083;28;19920;-80
2023/03/23 11:01:53;;;;;;;;;;;;;;;11.93;77.46;97812.91;5095437;28;20299;-81
2023/03/23 11:04:19;;;;;;;;;;;;;;;11.95;77.07;97817.97;5071048;28;19916;-80
2023/03/23 11:06:46;;;;;;;;;;;;;;;12.00;77.01;97817.91;5085937;28;19921;-81
2023/03/23 11:09:16;;;;;;;;;;;;;;;12.01;76.68;97809.59;5094094;28;19912;-81
2023/03/23 11:11:43;;;;;;;;;;;;;;;12.09;75.73;97802.84;5098776;28;19912;-80
2023/03/23 11:14:12;;;;;;;;;;;;;;;12.06;76.16;97807.97;5098517;28;20009;-81
2023/03/23 11:16:42;;;;;;;;;;;;;;;12.14;75.85;97804.69;5096145;28;19931;-81
2023/03/23 11:19:12;;;;;;;;;;;;;;;12.31;75.93;97791.66;5086508;28;19916;-81
2023/03/23 11:21:38;;;;;;;;;;;;;;;12.29;75.80;97812.53;5045740;28;20300;-81
2023/03/23 11:24:04;;;;;;;;;;;;;;;12.39;75.30;97804.38;5083824;28;19917;-81
2023/03/23 11:26:31;;;;;;;;;;;;;;;12.45;74.40;97803.28;5094453;28;20390;-81
2023/03/23 11:29:10;;;;;;;;;;;;;;;12.50;73.94;97820.06;5081292;28;19925;-81
2023/03/23 11:31:36;;;;;;;;;;;;;;;12.57;73.45;97817.03;5081965;28;20300;-81
2023/03/23 11:34:10;;;;;;;;;;;;;;;12.63;73.36;97821.22;5063657;28;19920;-80
2023/03/23 11:36:41;;;;;;;;;;;;;;;12.70;73.08;97816.34;5080147;28;19917;-81
2023/03/23 11:39:21;;;;;;;;;;;;;;;12.74;72.72;97815.47;5079794;28;19912;-80
2023/03/23 11:41:47;;;;;;;;;;;;;;;12.77;72.02;97822.94;5092581;28;19912;-80
2023/03/23 11:44:13;;;;;;;;;;;;;;;12.81;71.93;97812.44;5101058;28;19934;-80
2023/03/23 11:46:58;;;;;;;;;;;;;;;12.77;71.23;97816.78;5096722;28;19920;-80
2023/03/23 11:49:35;;;;;;;;;;;;;;;12.85;70.96;97818.81;5081814;28;19993;-81
2023/03/23 11:52:13;;;;;;;;;;;;;;;12.78;71.03;97815.69;5063785;28;19917;-82
2023/03/23 11:54:42;;;;;;;;;;;;;;;12.78;70.47;97818.38;5063584;28;19912;-82
2023/03/23 11:57:10;;;;;;;;;;;;;;;12.85;69.27;97810.78;5082032;28;19916;-82
2023/03/23 11:59:36;;;;;;;;;;;;;;;12.91;69.01;97827.59;5088652;28;19913;-81
2023/03/23 12:02:13;;;;;;;;;;;;;;;12.93;68.76;97828.88;5082291;28;19913;-81
2023/03/23 12:04:57;;;;;;;;;;;;;;;12.97;68.50;97837.97;5063569;28;19919;-81
2023/03/23 12:07:36;;;;;;;;;;;;;;;13.11;68.05;97832.69;5081778;28;19984;-82
2023/03/23 12:10:12;;;;;;;;;;;;;;;13.22;68.46;97828.78;5081568;28;19966;-81
2023/03/23 12:12:50;;;;;;;;;;;;;;;13.47;67.46;97829.22;5080623;28;19923;-82
2023/03/23 12:15:25;;;;;;;;;;;;;;;13.60;66.62;97816.16;5086203;28;20427;-82
2023/03/23 12:17:56;;;;;;;;;;;;;;;13.78;66.78;97820.69;5081208;28;19987;-81
2023/03/23 12:20:36;;;;;;;;;;;;;;;13.81;66.80;97823.56;5068515;28;19937;-81
2023/03/23 12:23:19;;;;;;;;;;;;;;;13.94;67.16;97816.63;5089863;28;20011;-80
2023/03/23 12:25:45;;;;;;;;;;;;;;;13.86;67.36;97820.81;5080580;28;19959;-80
2023/03/23 12:28:20;;;;;;;;;;;;;;;13.95;67.61;97820.94;5080067;28;19955;-80
2023/03/23 12:30:45;;;;;;;;;;;;;;;14.13;67.23;97806.66;5079868;28;19920;-81
2023/03/23 12:33:19;;;;;;;;;;;;;;;14.22;68.24;97819.06;5080131;28;19921;-80
2023/03/23 12:35:55;;;;;;;;;;;;;;;14.35;67.35;97809.47;5083373;28;19920;-81
2023/03/23 12:38:25;;;;;;;;;;;;;;;14.52;67.09;97812.38;5101766;28;20299;-82
2023/03/23 12:41:03;;;;;;;;;;;;;;;14.42;66.93;97803.69;5101634;28;19947;-81
2023/03/23 12:43:35;;;;;;;;;;;;;;;14.22;67.78;97797.59;5099926;28;19943;-81
2023/03/23 12:46:01;;;;;;;;;;;;;;;14.26;67.42;97805.88;5101668;28;19948;-81
2023/03/23 12:48:33;;;;;;;;;;;;;;;14.18;67.32;97810.03;5100396;28;19916;-80
2023/03/23 12:51:07;;;;;;;;;;;;;;;14.26;66.88;97803.19;5088554;28;19917;-80
2023/03/23 12:53:36;;;;;;;;;;;;;;;14.36;66.59;97802.22;5079440;28;20658;-80
2023/03/23 12:56:01;;;;;;;;;;;;;;;14.31;66.67;97803.09;5080978;28;19956;-80